This is the latest recevied weather packets stored in our database for station/object SV1BYK-1. If no packets are shown the sender has not sent any weather packets the latest 10 day(s).
| Time | Temp. | Humidity | Pressure | Rain* | Wind** | Luminosity | Snow |
|---|---|---|---|---|---|---|---|
| 1778063229 | 26.67° C | 24% | 1008 hPa | 0 mm | - | - | - |
| 1778059989 | 26.67° C | 23% | 1008.8 hPa | 0 mm | - | - | - |
| 1778059449 | 26.67° C | 22% | 1008.9 hPa | 0 mm | - | - | - |
| 1778055129 | 25.56° C | 28% | 1009.5 hPa | 0 mm | - | - | - |
| 1778052429 | 24.44° C | 33% | 1010.2 hPa | 0 mm | - | - | - |
| 1778051349 | 24.44° C | 33% | 1010.2 hPa | 0 mm | - | - | - |
| 1778050269 | 24.44° C | 33% | 1010.2 hPa | 0 mm | - | - | - |
| 1778048649 | 24.44° C | 33% | 1010.2 hPa | 0 mm | - | - | - |
| 1778045949 | 0° C | 100% | 0 hPa | 0 mm | - | - | - |
| 1778044869 | 0° C | 100% | 0 hPa | 0 mm | - | - | - |
| 1778043249 | 0° C | 100% | 0 hPa | 0 mm | - | - | - |
| 1778042169 | 0° C | 100% | 0 hPa | 0 mm | - | - | - |
| 1778041089 | 0° C | 100% | 0 hPa | 0 mm | - | - | - |
| 1778036230 | 0° C | 100% | 0 hPa | 0 mm | - | - | - |
| 1778034069 | 0° C | 100% | 0 hPa | 0 mm | - | - | - |
| 1778031369 | 0° C | 100% | 0 hPa | 0 mm | - | - | - |
| 1778019715 | 16.67° C | 56% | 1009.2 hPa | 0 mm | - | - | - |
| 1778018095 | 16.67° C | 56% | 1009.2 hPa | 0 mm | - | - | - |
| 1778013235 | 16.67° C | 56% | 1009.2 hPa | 0 mm | - | - | - |
| 1778008915 | 17.22° C | 55% | 1009.3 hPa | 0 mm | - | - | - |
| 1778007835 | 17.22° C | 54% | 1009.1 hPa | 0 mm | - | - | - |
| 1778005135 | 18.33° C | 56% | 1008 hPa | 0 mm | - | - | - |
| 1778001355 | 21.11° C | 33% | 1007.7 hPa | 0 mm | - | - | - |
| 1778000815 | 21.67° C | 32% | 1007.8 hPa | 0 mm | - | - | - |
| 1777991095 | 26.67° C | 19% | 1007.7 hPa | 0 mm | - | - | - |
* Rain latest hour (hover to see other rain measurements)
** Current wind speed in m/s (hover to see current wind gust speed)